GCTS/TFS METAR and TAF weather

Enter ICAO airport designator
Station Type Date Time Source
GCTS METAR 2018/12/12 16:00 UTC NOAA

GCTS 121600Z 07016KT 9999 FEW027 SCT035 22/13 Q1023 NOSIG


Station Type Date Time Source
GCTS Decoded METAR 2018/12/12 16:00 UTC NOAA

Tenerife Sur, Spain (GCTS) 28-03N 016-34W 77M
Dec 12, 2018 - 11:00 AM EST / 2018.12.12 1600 UTC
Wind: from the ENE (070 degrees) at 18 MPH (16 KT):0
Visibility: greater than 7 mile(s):0
Sky conditions: partly cloudy
Temperature: 71 F (22 C)
Dew Point: 55 F (13 C)
Relative Humidity: 56%
Pressure (altimeter): 30.21 in. Hg (1023 hPa)
ob: GCTS 121600Z 07016KT 9999 FEW027 SCT035 22/13 Q1023 NOSIG
cycle: 16

Station Type Date Time Source
GCTS TAF 2018/12/12 15:27 UTC NOAA

TAF GCTS 121400Z 1215/1315 08018KT 9999 FEW025 TX23/1313Z TN17/1306Z
BECMG 1219/1221 02009KT
BECMG 1309/1311 08017KT


Example: see airport list